Impacts METAR Board
IDs:

KDTW - Detroit Metro/Wayne, MI, US

Updated at: 0900 UTC 25 Mar 2019
Potential Impact None Slight Moderate High
Time 24/21Z 24/22Z 24/23Z 25/00Z 25/01Z 25/02Z 25/03Z 25/04Z 25/05Z 25/06Z 25/07Z 25/08Z 25/09Z
Temp50 51 50 48 49 48 47 40 38 36 34 32 32
Dewpt24 26 29 32 33 34 36 27 26 25 23 23 21
Altim30.07 30.06 30.06 30.06 30.07 30.08 30.09 30.12 30.14 30.16 30.17 30.16 30.17
VIS10 10 10 10 10 10 9 10 10 10 10 10 10
CIG75 70 65 60 45 70 75 65 60 65 70 70 70
CoverBKNBKNOVCOVCOVCOVCOVCOVCOVCOVCOVCOVCOVC
FltCatVFRVFRVFRVFRVFRVFRVFRVFRVFRVFRVFRVFRVFR
WX--------------------------
WDir250260240200230240404040403020230
WSpd11 9 5 5 7 4 9 13 11 11 12 12 8
WGst-- -- -- -- -- -- -- -- -- -- 20 -- --
Raw hourly METARs
KDTW 242053Z 25011KT 10SM FEW050 BKN075 BKN120 10/M04 A3007 RMK AO2 SLP186 VIRGA E-SW T01001044 55013
KDTW 242153Z 26009KT 10SM FEW050 BKN070 BKN110 11/M03 A3006 RMK AO2 SLP183 VIRGA SE T01061033
KDTW 242253Z 24005KT 10SM FEW040 BKN065 OVC240 10/M02 A3006 RMK AO2 SLP184 VIRGA SE-W T01001017
KDTW 242353Z 20005KT 10SM SCT037 BKN060 OVC100 09/00 A3006 RMK AO2 SLP184 VIRGA NE-W T00890000 10128 20089 55002
KDTW 250053Z 23007KT 10SM BKN045 OVC060 09/01 A3007 RMK AO2 SLP188 T00940006
KDTW 250153Z 24004KT 10SM FEW045 OVC070 09/01 A3008 RMK AO2 SLP189 T00890011
KDTW 250253Z 04009KT 9SM BKN075 OVC090 08/02 A3009 RMK AO2 SLP191 T00830022 51008
KDTW 250353Z 04013KT 10SM BKN065 BKN095 OVC130 04/M03 A3012 RMK AO2 SLP205 T00441028
KDTW 250453Z 04011KT 10SM BKN060 OVC095 03/M03 A3014 RMK AO2 SLP210 T00331033 401281011
KDTW 250553Z 04011KT 10SM BKN065 BKN110 OVC180 02/M04 A3016 RMK AO2 SLP215 T00221039 10094 20022 51023
KDTW 250653Z 03012G20KT 10SM BKN070 OVC100 01/M05 A3017 RMK AO2 SLP219 T00111050
KDTW 250753Z 02012KT 10SM BKN070 BKN100 OVC180 00/M05 A3016 RMK AO2 SLP218 T00001050
KDTW 250853Z 23008KT 10SM BKN070 BKN100 OVC180 00/M06 A3017 RMK AO2 SLP219 T00001061 51003 $



Page loaded:  09:55 UTC  |   02:55 AM Pacific  |   03:55 AM Mountain  |   04:55 AM Central  |   05:55 AM Eastern

 

ADVISORIES

FORECASTS

FORECASTS

OBSERVATIONS

USER TOOLS

ABOUT US